Terminal Aerodrome Forecast
Issued by NWS

Home | Current Version | Previous Version | Text Only | Print | Product List | Glossary On
Versions: 1 2 3 4 5 6 7 8 9 10 11 12 13 14 15 16 17 18 19 20 21 22 23 24 25 26 27 28 29 30 31
000
FTUS43 KTOP 021100 CCA
TAFFOE
TAF COR
KFOE 021136Z 0212/0312 VRB02KT 1/2SM FG BKN002
      TEMPO 0212/0214 4SM BR BKN012
     FM021400 08006KT P6SM SCT040
     FM030600 13010KT P6SM VCTS BKN060CB=

USA.gov is the U.S. government's official web portal to all federal, state and local government web resources and services.